createdAt,value
2022-10-14T00:00:07.363Z,71.97
2022-10-14T00:01:07.546Z,71.46
2022-10-14T00:02:07.825Z,71.87
2022-10-14T00:03:07.877Z,71.97
2022-10-14T00:04:08.057Z,72.17
2022-10-14T00:05:08.216Z,72.38
2022-10-14T00:06:08.416Z,72.08
2022-10-14T00:07:08.564Z,71.77
2022-10-14T00:08:08.727Z,72.48
2022-10-14T00:09:08.912Z,72.79
2022-10-14T00:10:09.073Z,72.17
2022-10-14T00:11:09.248Z,71.67
2022-10-14T00:12:09.445Z,71.77
2022-10-14T00:13:09.606Z,73.10
2022-10-14T00:14:09.786Z,72.58
2022-10-14T00:15:09.956Z,72.69
2022-10-14T00:16:10.173Z,72.17
2022-10-14T00:17:10.317Z,72.08
2022-10-14T00:18:10.487Z,72.08
2022-10-14T00:19:10.667Z,71.77
2022-10-14T00:20:10.855Z,71.77
2022-10-14T00:21:11.039Z,71.56
2022-10-14T00:22:11.214Z,71.77
2022-10-14T00:23:11.377Z,71.56
2022-10-14T00:24:11.556Z,71.26
2022-10-14T00:25:11.725Z,71.06
2022-10-14T00:26:11.934Z,71.46
2022-10-14T00:27:12.077Z,71.36
2022-10-14T00:28:12.252Z,71.56
2022-10-14T00:29:12.436Z,71.56
2022-10-14T00:30:12.623Z,71.97
2022-10-14T00:31:12.815Z,71.36
2022-10-14T00:32:12.982Z,71.36
2022-10-14T00:33:13.146Z,71.67
2022-10-14T00:34:13.336Z,71.87
2022-10-14T00:35:13.511Z,71.56
2022-10-14T00:36:13.708Z,71.26
2022-10-14T00:37:13.843Z,71.26
2022-10-14T00:38:14.026Z,71.77
2022-10-14T00:39:14.195Z,71.36
2022-10-14T00:40:14.375Z,71.15
2022-10-14T00:41:14.574Z,71.15
2022-10-14T00:42:14.755Z,71.26
2022-10-14T00:43:14.905Z,71.26
2022-10-14T00:44:15.075Z,71.70
2022-10-14T00:45:15.255Z,71.46
2022-10-14T00:46:15.443Z,72.48
2022-10-14T00:47:15.634Z,72.11
2022-10-14T00:48:15.776Z,72.41
2022-10-14T00:49:15.952Z,72.11
2022-10-14T00:50:16.126Z,71.60
2022-10-14T00:51:16.316Z,72.41
2022-10-14T00:52:16.484Z,72.52
2022-10-14T00:53:16.669Z,71.60
2022-10-14T00:54:16.828Z,72.31
2022-10-14T00:55:17.011Z,72.11
2022-10-14T00:56:17.194Z,72.11
2022-10-14T00:57:17.324Z,72.00
2022-10-14T00:58:17.525Z,71.70
2022-10-14T00:59:17.708Z,71.60
2022-10-14T01:00:17.854Z,71.70
2022-10-14T01:01:18.090Z,71.70
2022-10-14T01:02:18.213Z,71.39
2022-10-14T01:03:18.394Z,70.98
2022-10-14T01:04:18.564Z,70.78
2022-10-14T01:05:18.739Z,71.09
2022-10-14T01:06:18.927Z,71.19
2022-10-14T01:07:19.411Z,71.29
2022-10-14T01:08:19.267Z,70.98
2022-10-14T01:09:19.453Z,71.80
2022-10-14T01:10:19.625Z,72.00
2022-10-14T01:11:19.814Z,71.29
2022-10-14T01:12:35.355Z,71.91
2022-10-14T01:13:21.143Z,71.50
2022-10-14T01:14:20.327Z,71.29
2022-10-14T01:15:20.503Z,72.00
2022-10-14T01:16:20.691Z,71.80
2022-10-14T01:17:20.864Z,72.62
2022-10-14T01:18:21.032Z,72.41
2022-10-14T01:19:21.204Z,72.41
2022-10-14T01:20:21.374Z,71.60
2022-10-14T01:21:21.573Z,71.39
2022-10-14T01:22:22.480Z,71.70
2022-10-14T01:23:21.894Z,71.50
2022-10-14T01:24:22.064Z,72.41
2022-10-14T01:25:22.254Z,72.11
2022-10-14T01:26:22.443Z,72.11
2022-10-14T01:27:22.583Z,71.60
2022-10-14T01:28:22.835Z,71.29
2022-10-14T01:29:22.924Z,71.39
2022-10-14T01:30:23.096Z,71.70
2022-10-14T01:31:23.295Z,71.29
2022-10-14T01:32:23.711Z,71.80
2022-10-14T01:33:23.602Z,72.72
2022-10-14T01:34:23.772Z,71.80
2022-10-14T01:35:23.940Z,71.91
2022-10-14T01:36:24.124Z,71.39
2022-10-14T01:37:24.303Z,71.60
2022-10-14T01:38:24.482Z,72.00
2022-10-14T01:39:24.663Z,71.29
2022-10-14T01:40:24.834Z,71.29
2022-10-14T01:41:25.022Z,71.50
2022-10-14T01:42:25.162Z,72.21
2022-10-14T01:43:25.342Z,71.94
2022-10-14T01:44:25.512Z,71.73
2022-10-14T01:45:25.694Z,72.14
2022-10-14T01:46:25.871Z,72.14
2022-10-14T01:47:26.052Z,72.55
2022-10-14T01:48:26.212Z,72.65
2022-10-14T01:49:26.390Z,72.65
2022-10-14T01:50:26.563Z,72.04
2022-10-14T01:51:26.742Z,71.73
2022-10-14T01:52:26.922Z,71.73
2022-10-14T01:53:27.102Z,72.04
2022-10-14T01:54:27.272Z,72.14
2022-10-14T01:55:27.461Z,72.24
2022-10-14T01:56:27.642Z,71.94
2022-10-14T01:57:27.822Z,72.04
2022-10-14T01:58:28.000Z,71.63
2022-10-14T01:59:28.172Z,71.53
2022-10-14T02:00:28.342Z,72.04
2022-10-14T02:01:28.565Z,71.94
2022-10-14T02:02:28.672Z,72.24
2022-10-14T02:03:28.854Z,71.73
2022-10-14T02:04:29.021Z,71.73
2022-10-14T02:05:29.194Z,71.73
2022-10-14T02:06:29.382Z,71.84
2022-10-14T02:07:29.562Z,72.24
2022-10-14T02:08:29.745Z,72.55
2022-10-14T02:09:29.921Z,73.16
2022-10-14T02:10:30.093Z,72.34
2022-10-14T02:11:30.289Z,73.67
2022-10-14T02:12:30.441Z,72.65
2022-10-14T02:13:30.589Z,72.75
2022-10-14T02:14:30.774Z,72.34
2022-10-14T02:15:30.947Z,72.96
2022-10-14T02:16:31.131Z,72.14
2022-10-14T02:17:31.302Z,72.04
2022-10-14T02:18:31.486Z,72.82
2022-10-14T02:19:31.652Z,72.75
2022-10-14T02:20:31.833Z,72.24
2022-10-14T02:21:32.024Z,72.62
2022-10-14T02:22:32.191Z,71.60
2022-10-14T02:23:32.371Z,71.70
2022-10-14T02:24:32.545Z,72.21
2022-10-14T02:25:32.710Z,71.80
2022-10-14T02:26:32.905Z,71.50
2022-10-14T02:27:33.081Z,71.39
2022-10-14T02:28:33.278Z,71.50
2022-10-14T02:29:33.438Z,71.39
2022-10-14T02:30:33.623Z,71.60
2022-10-14T02:31:33.787Z,71.80
2022-10-14T02:32:33.950Z,71.70
2022-10-14T02:33:34.122Z,71.80
2022-10-14T02:34:34.309Z,71.70
2022-10-14T02:35:34.460Z,71.77
2022-10-14T02:36:34.641Z,71.77
2022-10-14T02:37:34.822Z,72.58
2022-10-14T02:38:35.000Z,71.97
2022-10-14T02:39:35.202Z,72.38
2022-10-14T02:40:35.360Z,71.46
2022-10-14T02:41:35.530Z,71.77
2022-10-14T02:42:35.709Z,71.46
2022-10-14T02:43:35.891Z,71.56
2022-10-14T02:44:36.059Z,71.36
2022-10-14T02:45:36.250Z,71.26
2022-10-14T02:46:36.410Z,71.12
2022-10-14T02:47:36.587Z,71.23
2022-10-14T02:48:36.754Z,71.43
2022-10-14T02:49:36.932Z,71.63
2022-10-14T02:50:37.127Z,72.34
2022-10-14T02:51:37.289Z,72.24
2022-10-14T02:52:37.469Z,72.04
2022-10-14T02:53:37.649Z,71.84
2022-10-14T02:54:37.850Z,71.53
2022-10-14T02:55:38.019Z,71.43
2022-10-14T02:56:38.196Z,71.33
2022-10-14T02:57:38.381Z,71.33
2022-10-14T02:58:38.543Z,71.02
2022-10-14T02:59:38.750Z,71.23
2022-10-14T03:00:38.889Z,70.82
2022-10-14T03:01:39.117Z,71.02
2022-10-14T03:02:39.289Z,71.12
2022-10-14T03:03:39.399Z,71.63
2022-10-14T03:04:39.593Z,71.73
2022-10-14T03:05:39.805Z,71.23
2022-10-14T03:06:39.940Z,71.23
2022-10-14T03:07:40.109Z,71.43
2022-10-14T03:08:40.269Z,71.33
2022-10-14T03:09:40.470Z,71.23
2022-10-14T03:10:40.608Z,71.23
2022-10-14T03:11:40.780Z,71.12
2022-10-14T03:12:40.971Z,71.12
2022-10-14T03:13:41.109Z,71.43
2022-10-14T03:14:41.278Z,71.63
2022-10-14T03:15:41.460Z,71.23
2022-10-14T03:16:41.628Z,71.73
2022-10-14T03:17:41.808Z,71.63
2022-10-14T03:18:41.978Z,72.24
2022-10-14T03:19:42.178Z,71.33
2022-10-14T03:20:42.315Z,71.43
2022-10-14T03:21:42.489Z,71.53
2022-10-14T03:22:42.659Z,71.43
2022-10-14T03:23:42.836Z,71.23
2022-10-14T03:24:43.047Z,71.43
2022-10-14T03:25:43.177Z,71.12
2022-10-14T03:26:43.349Z,71.02
2022-10-14T03:27:43.527Z,71.12
2022-10-14T03:28:43.759Z,71.23
2022-10-14T03:29:43.907Z,71.33
2022-10-14T03:30:44.052Z,71.12
2022-10-14T03:31:44.217Z,71.12
2022-10-14T03:32:44.388Z,71.63
2022-10-14T03:33:44.557Z,71.12
2022-10-14T03:34:44.741Z,71.33
2022-10-14T03:35:44.916Z,71.53
2022-10-14T03:36:45.069Z,71.53
2022-10-14T03:37:45.237Z,71.73
2022-10-14T03:38:45.397Z,71.53
2022-10-14T03:39:45.618Z,71.43
2022-10-14T03:40:45.798Z,71.12
2022-10-14T03:41:45.977Z,71.43
2022-10-14T03:42:46.136Z,71.53
2022-10-14T03:43:46.324Z,71.12
2022-10-14T03:44:46.497Z,71.33
2022-10-14T03:45:46.676Z,71.63
2022-10-14T03:46:46.854Z,71.53
2022-10-14T03:47:47.007Z,72.14
2022-10-14T03:48:47.170Z,72.55
2022-10-14T03:49:47.366Z,72.75
2022-10-14T03:50:47.497Z,73.10
2022-10-14T03:51:47.675Z,72.69
2022-10-14T03:52:50.961Z,72.38
2022-10-14T03:53:49.046Z,72.45
2022-10-14T03:54:48.216Z,72.24
2022-10-14T03:55:48.377Z,72.14
2022-10-14T03:56:48.536Z,72.04
2022-10-14T03:57:48.715Z,71.73
2022-10-14T03:58:48.886Z,71.53
2022-10-14T03:59:49.077Z,71.63
2022-10-14T04:00:49.219Z,71.84
2022-10-14T04:01:49.423Z,71.63
2022-10-14T04:02:49.556Z,71.60
2022-10-14T04:03:49.733Z,71.70
2022-10-14T04:04:49.916Z,71.70
2022-10-14T04:05:50.066Z,71.39
2022-10-14T04:06:50.237Z,71.39
2022-10-14T04:07:50.421Z,71.39
2022-10-14T04:08:50.575Z,71.39
2022-10-14T04:09:50.767Z,71.50
2022-10-14T04:10:50.906Z,71.91
2022-10-14T04:11:51.080Z,71.39
2022-10-14T04:12:51.247Z,71.60
2022-10-14T04:13:51.416Z,71.91
2022-10-14T04:14:51.601Z,71.50
2022-10-14T04:15:51.768Z,71.39
2022-10-14T04:16:51.951Z,71.50
2022-10-14T04:17:52.106Z,71.30
2022-10-14T04:18:52.286Z,71.30
2022-10-14T04:19:52.488Z,71.30
2022-10-14T04:20:52.627Z,71.30
2022-10-14T04:21:52.825Z,71.09
2022-10-14T04:22:52.976Z,71.19
2022-10-14T04:23:53.147Z,71.19
2022-10-14T04:24:53.315Z,71.19
2022-10-14T04:25:53.490Z,71.09
2022-10-14T04:26:53.675Z,70.89
2022-10-14T04:27:53.845Z,70.95
2022-10-14T04:28:54.063Z,70.95
2022-10-14T04:29:54.190Z,70.99
2022-10-14T04:30:54.335Z,71.06
2022-10-14T04:31:54.526Z,70.86
2022-10-14T04:32:54.665Z,70.65
2022-10-14T04:33:54.827Z,70.65
2022-10-14T04:34:54.995Z,70.86
2022-10-14T04:35:55.167Z,70.95
2022-10-14T04:36:55.376Z,71.06
2022-10-14T04:37:55.495Z,71.16
2022-10-14T04:38:55.676Z,71.16
2022-10-14T04:39:55.844Z,71.16
2022-10-14T04:40:56.006Z,70.75
2022-10-14T04:41:56.239Z,71.16
2022-10-14T04:42:56.369Z,70.95
2022-10-14T04:43:56.535Z,71.06
2022-10-14T04:44:56.755Z,71.06
2022-10-14T04:45:56.888Z,70.86
2022-10-14T04:46:57.095Z,70.95
2022-10-14T04:47:57.249Z,70.86
2022-10-14T04:48:57.424Z,70.86
2022-10-14T04:49:57.604Z,70.86
2022-10-14T04:50:57.765Z,70.95
2022-10-14T04:51:57.955Z,70.75
2022-10-14T04:52:58.114Z,70.86
2022-10-14T04:53:58.315Z,70.86
2022-10-14T04:54:58.459Z,70.65
2022-10-14T04:55:58.642Z,70.95
2022-10-14T04:56:58.831Z,70.62
2022-10-14T04:57:58.986Z,70.51
2022-10-14T04:58:59.166Z,70.41
2022-10-14T04:59:59.316Z,70.62
2022-10-14T05:00:59.485Z,70.51
2022-10-14T05:01:59.704Z,70.51
2022-10-14T05:02:59.814Z,70.41
2022-10-14T05:03:59.985Z,70.41
2022-10-14T05:05:00.170Z,70.31
2022-10-14T05:06:00.334Z,70.51
2022-10-14T05:07:00.535Z,70.72
2022-10-14T05:08:00.674Z,70.51
2022-10-14T05:09:00.844Z,70.41
2022-10-14T05:10:01.035Z,70.41
2022-10-14T05:11:01.193Z,70.51
2022-10-14T05:12:01.396Z,70.41
2022-10-14T05:13:01.568Z,70.31
2022-10-14T05:14:01.714Z,70.51
2022-10-14T05:15:01.905Z,70.62
2022-10-14T05:16:02.065Z,70.41
2022-10-14T05:17:02.248Z,70.31
2022-10-14T05:18:02.405Z,70.31
2022-10-14T05:19:02.606Z,70.41
2022-10-14T05:20:02.754Z,70.41
2022-10-14T05:21:02.953Z,70.41
2022-10-14T05:22:03.132Z,70.51
2022-10-14T05:23:03.306Z,70.41
2022-10-14T05:24:03.464Z,70.31
2022-10-14T05:25:03.633Z,70.41
2022-10-14T05:26:03.794Z,70.21
2022-10-14T05:27:03.979Z,70.51
2022-10-14T05:28:04.133Z,70.41
2022-10-14T05:29:04.296Z,70.31
2022-10-14T05:30:04.471Z,70.51
2022-10-14T05:31:04.660Z,70.31
2022-10-14T05:32:04.854Z,70.31
2022-10-14T05:33:05.013Z,70.51
2022-10-14T05:34:05.192Z,70.31
2022-10-14T05:35:05.373Z,70.18
2022-10-14T05:36:05.530Z,70.07
2022-10-14T05:37:05.742Z,70.07
2022-10-14T05:38:05.895Z,70.07
2022-10-14T05:39:06.075Z,69.97
2022-10-14T05:40:06.246Z,69.97
2022-10-14T05:41:06.416Z,69.97
2022-10-14T05:42:06.592Z,69.87
2022-10-14T05:43:06.762Z,69.87
2022-10-14T05:44:06.913Z,69.87
2022-10-14T05:45:07.133Z,69.97
2022-10-14T05:46:07.286Z,69.87
2022-10-14T05:47:07.444Z,70.07
2022-10-14T05:48:07.600Z,70.28
2022-10-14T05:49:07.784Z,69.97
2022-10-14T05:50:07.996Z,69.97
2022-10-14T05:51:08.168Z,70.18
2022-10-14T05:52:08.315Z,70.18
2022-10-14T05:53:08.538Z,69.87
2022-10-14T05:54:08.684Z,69.97
2022-10-14T05:55:08.859Z,69.97
2022-10-14T05:56:09.016Z,69.94
2022-10-14T05:57:09.208Z,69.94
2022-10-14T05:58:09.384Z,69.84
2022-10-14T05:59:09.583Z,69.74
2022-10-14T06:00:09.771Z,69.94
2022-10-14T06:01:09.944Z,69.74
2022-10-14T06:02:10.115Z,69.94
2022-10-14T06:03:10.326Z,69.84
2022-10-14T06:04:10.473Z,69.94
2022-10-14T06:05:10.683Z,70.14
2022-10-14T06:06:10.841Z,69.84
2022-10-14T06:07:11.026Z,69.70
2022-10-14T06:08:11.173Z,69.81
2022-10-14T06:09:11.693Z,70.01
2022-10-14T06:10:11.564Z,69.70
2022-10-14T06:11:11.701Z,69.70
2022-10-14T06:12:11.862Z,69.70
2022-10-14T06:13:12.033Z,69.60
2022-10-14T06:14:12.203Z,69.40
2022-10-14T06:15:12.443Z,69.50
2022-10-14T06:16:12.560Z,69.50
2022-10-14T06:17:12.751Z,69.47
2022-10-14T06:18:12.914Z,69.98
2022-10-14T06:19:13.121Z,69.98
2022-10-14T06:20:13.311Z,69.67
2022-10-14T06:21:13.515Z,69.67
2022-10-14T06:22:13.623Z,69.67
2022-10-14T06:23:13.782Z,69.06
2022-10-14T06:24:13.933Z,68.96
2022-10-14T06:25:14.155Z,68.96
2022-10-14T06:26:14.312Z,69.06
2022-10-14T06:27:14.472Z,69.03
2022-10-14T06:28:14.719Z,68.93
2022-10-14T06:29:14.831Z,69.13
2022-10-14T06:30:14.996Z,69.03
2022-10-14T06:31:15.159Z,68.93
2022-10-14T06:32:15.410Z,68.83
2022-10-14T06:33:15.473Z,68.73
2022-10-14T06:34:15.635Z,68.73
2022-10-14T06:35:15.832Z,68.79
2022-10-14T06:36:15.984Z,68.79
2022-10-14T06:37:16.142Z,68.70
2022-10-14T06:38:16.301Z,68.90
2022-10-14T06:39:16.504Z,68.59
2022-10-14T06:40:16.672Z,68.08
2022-10-14T06:41:16.850Z,68.56
2022-10-14T06:42:17.010Z,68.56
2022-10-14T06:43:17.164Z,68.26
2022-10-14T06:44:17.322Z,68.26
2022-10-14T06:45:17.521Z,68.26
2022-10-14T06:46:17.662Z,68.15
2022-10-14T06:47:17.833Z,67.95
2022-10-14T06:48:18.001Z,68.12
2022-10-14T06:49:18.177Z,67.92
2022-10-14T06:50:18.363Z,67.92
2022-10-14T06:51:18.531Z,67.82
2022-10-14T06:52:18.866Z,67.82
2022-10-14T06:53:18.885Z,67.82
2022-10-14T06:54:19.057Z,67.68
2022-10-14T06:55:19.221Z,67.99
2022-10-14T06:56:19.378Z,67.89
2022-10-14T06:57:19.537Z,67.68
2022-10-14T06:58:19.692Z,67.28
2022-10-14T06:59:19.861Z,67.38
2022-10-14T07:00:20.542Z,67.45
2022-10-14T07:01:20.205Z,67.76
2022-10-14T07:02:20.705Z,67.55
2022-10-14T07:03:20.544Z,67.55
2022-10-14T07:04:20.701Z,67.55
2022-10-14T07:05:20.882Z,67.11
2022-10-14T07:06:21.021Z,66.81
2022-10-14T07:07:21.222Z,66.71
2022-10-14T07:08:21.383Z,66.61
2022-10-14T07:09:21.552Z,66.67
2022-10-14T07:10:21.731Z,66.78
2022-10-14T07:11:21.913Z,66.67
2022-10-14T07:12:22.383Z,66.67
2022-10-14T07:13:22.232Z,66.14
2022-10-14T07:14:22.421Z,65.73
2022-10-14T07:15:22.625Z,65.53
2022-10-14T07:16:22.732Z,64.73
2022-10-14T07:17:23.351Z,64.79
2022-10-14T07:18:23.095Z,64.90
2022-10-14T07:19:23.334Z,64.70
2022-10-14T07:20:23.534Z,65.20
2022-10-14T07:21:23.593Z,65.27
2022-10-14T07:22:24.152Z,65.27
2022-10-14T07:23:23.931Z,65.17
2022-10-14T07:24:24.092Z,64.94
2022-10-14T07:25:24.273Z,64.43
2022-10-14T07:26:24.473Z,63.93
2022-10-14T07:27:24.842Z,63.39
2022-10-14T07:28:24.779Z,63.39
2022-10-14T07:29:24.945Z,63.59
2022-10-14T07:30:25.103Z,63.46
2022-10-14T07:31:25.262Z,63.67
2022-10-14T07:32:25.445Z,63.06
2022-10-14T07:33:25.704Z,62.83
2022-10-14T07:34:25.762Z,62.83
2022-10-14T07:35:25.944Z,63.03
2022-10-14T07:36:26.083Z,62.73
2022-10-14T07:37:26.287Z,61.92
2022-10-14T07:38:26.432Z,62.60
2022-10-14T07:39:27.123Z,62.40
2022-10-14T07:40:26.792Z,62.29
2022-10-14T07:41:26.992Z,62.60
2022-10-14T07:42:27.145Z,62.40
2022-10-14T07:43:27.341Z,62.80
2022-10-14T07:44:27.682Z,62.16
2022-10-14T07:45:27.672Z,61.66
2022-10-14T07:46:27.823Z,61.86
2022-10-14T07:47:28.010Z,61.86
2022-10-14T07:48:32.789Z,61.43
2022-10-14T07:49:29.444Z,61.73
2022-10-14T07:50:28.514Z,62.01
2022-10-14T07:51:28.673Z,61.20
2022-10-14T07:52:28.882Z,61.17
2022-10-14T07:53:29.001Z,60.77
2022-10-14T07:54:29.173Z,59.63
2022-10-14T07:55:29.353Z,59.83
2022-10-14T07:56:29.534Z,59.50
2022-10-14T07:57:29.691Z,58.87
2022-10-14T07:58:29.853Z,58.87
2022-10-14T07:59:30.072Z,59.14
2022-10-14T08:00:30.259Z,57.91
2022-10-14T08:01:30.413Z,58.51
2022-10-14T08:02:30.599Z,57.98
2022-10-14T08:03:30.741Z,56.48
2022-10-14T08:04:30.914Z,56.58
2022-10-14T08:05:38.050Z,56.68
2022-10-14T08:06:32.253Z,56.85
2022-10-14T08:07:31.414Z,57.46
2022-10-14T08:08:31.574Z,55.95
2022-10-14T08:09:31.756Z,56.78
2022-10-14T08:10:31.905Z,56.78
2022-10-14T08:11:32.079Z,56.98
2022-10-14T08:12:32.234Z,56.78
2022-10-14T08:13:32.445Z,56.78
2022-10-14T08:14:32.617Z,57.18
2022-10-14T08:15:32.774Z,56.65
2022-10-14T08:16:32.937Z,57.56
2022-10-14T08:17:33.115Z,57.26
2022-10-14T08:18:33.294Z,57.66
2022-10-14T08:19:33.559Z,57.56
2022-10-14T08:20:33.686Z,56.35
2022-10-14T08:21:33.835Z,56.35
2022-10-14T08:22:34.014Z,56.15
2022-10-14T08:23:34.205Z,56.43
2022-10-14T08:24:34.365Z,56.83
2022-10-14T08:25:34.535Z,56.43
2022-10-14T08:26:34.695Z,55.43
2022-10-14T08:27:34.893Z,56.00
2022-10-14T08:28:35.108Z,55.70
2022-10-14T08:29:35.279Z,56.20
2022-10-14T08:30:35.400Z,56.60
2022-10-14T08:31:35.605Z,55.70
2022-10-14T08:32:35.767Z,55.47
2022-10-14T08:33:35.936Z,55.57
2022-10-14T08:34:36.105Z,55.17
2022-10-14T08:35:36.268Z,54.57
2022-10-14T08:36:36.467Z,55.05
2022-10-14T08:37:36.638Z,54.74
2022-10-14T08:38:36.839Z,54.39
2022-10-14T08:39:36.986Z,53.67
2022-10-14T08:40:37.166Z,53.34
2022-10-14T08:41:37.415Z,52.74
2022-10-14T08:42:37.537Z,51.92
2022-10-14T08:43:37.721Z,52.17
2022-10-14T08:44:37.932Z,51.15
2022-10-14T08:45:38.066Z,50.38
2022-10-14T08:46:38.227Z,48.36
2022-10-14T08:47:38.400Z,48.04
2022-10-14T08:48:38.573Z,47.50
2022-10-14T08:49:38.767Z,46.42
2022-10-14T08:50:38.908Z,44.41
2022-10-14T08:51:39.113Z,44.71
2022-10-14T08:52:39.290Z,45.52
2022-10-14T08:53:39.514Z,45.62
2022-10-14T08:54:39.649Z,45.23
2022-10-14T08:55:39.819Z,45.32
2022-10-14T08:56:39.969Z,45.40
2022-10-14T08:57:40.168Z,44.78
2022-10-14T08:58:40.332Z,44.96
2022-10-14T08:59:40.518Z,44.35
2022-10-14T09:00:40.675Z,42.52
2022-10-14T09:01:40.840Z,42.82
2022-10-14T09:02:41.030Z,43.19
2022-10-14T09:03:41.233Z,42.43
2022-10-14T09:04:41.399Z,42.52
2022-10-14T09:05:41.553Z,43.10
2022-10-14T09:06:41.739Z,43.10
2022-10-14T09:07:41.964Z,41.97
2022-10-14T09:08:42.092Z,41.57
2022-10-14T09:09:42.301Z,41.47
2022-10-14T09:10:42.478Z,42.07
2022-10-14T09:11:42.620Z,40.58
2022-10-14T09:12:42.800Z,41.17
2022-10-14T09:13:42.942Z,42.19
2022-10-14T09:14:43.188Z,41.44
2022-10-14T09:15:43.292Z,41.63
2022-10-14T09:16:43.493Z,43.16
2022-10-14T09:17:43.653Z,43.06
2022-10-14T09:18:43.842Z,42.76
2022-10-14T09:19:44.032Z,43.53
2022-10-14T09:20:44.192Z,43.21
2022-10-14T09:21:53.094Z,41.93
2022-10-14T09:22:45.610Z,42.03
2022-10-14T09:23:44.711Z,42.62
2022-10-14T09:24:44.932Z,42.82
2022-10-14T09:25:45.083Z,42.52
2022-10-14T09:26:45.286Z,41.75
2022-10-14T09:28:45.702Z,43.70
2022-10-14T09:29:45.794Z,44.89
2022-10-14T09:30:45.951Z,43.38
2022-10-14T09:31:46.124Z,43.60
2022-10-14T09:32:46.303Z,43.82
2022-10-14T09:33:46.484Z,44.71
2022-10-14T09:34:46.694Z,45.23
2022-10-14T09:35:46.891Z,45.45
2022-10-14T09:36:47.028Z,46.36
2022-10-14T09:37:47.174Z,46.16
2022-10-14T09:38:47.356Z,46.78
2022-10-14T09:39:47.545Z,45.68
2022-10-14T09:40:47.734Z,46.31
2022-10-14T09:41:47.905Z,47.02
2022-10-14T09:42:48.106Z,47.54
2022-10-14T09:43:48.277Z,47.94
2022-10-14T09:44:48.494Z,48.83
2022-10-14T09:45:48.635Z,48.94
2022-10-14T09:46:48.825Z,49.36
2022-10-14T09:47:48.996Z,48.76
2022-10-14T09:48:49.191Z,48.56
2022-10-14T09:49:49.349Z,48.19
2022-10-14T09:50:49.497Z,48.68
2022-10-14T09:51:49.659Z,49.10
2022-10-14T09:52:49.860Z,49.40
2022-10-14T09:53:50.018Z,49.43
2022-10-14T09:55:50.356Z,49.63
2022-10-14T09:56:50.527Z,50.25
2022-10-14T09:57:50.687Z,50.55
2022-10-14T09:58:50.888Z,50.25
2022-10-14T09:59:51.049Z,50.45
2022-10-14T10:00:51.227Z,50.95
2022-10-14T10:01:51.382Z,50.74
2022-10-14T10:02:51.561Z,51.05
2022-10-14T10:03:51.844Z,50.85
2022-10-14T10:04:51.908Z,51.15
2022-10-14T10:05:52.088Z,51.35
2022-10-14T10:06:52.463Z,51.22
2022-10-14T10:07:52.427Z,51.40
2022-10-14T10:08:52.622Z,50.70
2022-10-14T10:09:52.793Z,50.78
2022-10-14T10:10:52.993Z,50.27
2022-10-14T10:11:53.151Z,50.08
2022-10-14T10:12:53.309Z,49.88
2022-10-14T10:13:53.471Z,49.68
2022-10-14T10:14:53.680Z,48.79
2022-10-14T10:15:53.839Z,48.88
2022-10-14T10:16:54.042Z,49.51
2022-10-14T10:17:54.190Z,49.51
2022-10-14T10:18:54.385Z,49.80
2022-10-14T10:19:54.570Z,49.60
2022-10-14T10:20:54.750Z,49.70
2022-10-14T10:21:54.911Z,50.40
2022-10-14T10:22:55.091Z,50.08
2022-10-14T10:23:55.286Z,50.38
2022-10-14T10:24:55.474Z,49.88
2022-10-14T10:25:55.626Z,49.18
2022-10-14T10:26:55.782Z,49.95
2022-10-14T10:27:55.920Z,49.06
2022-10-14T10:28:56.159Z,48.68
2022-10-14T10:29:56.329Z,48.49
2022-10-14T10:30:56.472Z,49.10
2022-10-14T10:31:56.686Z,49.30
2022-10-14T10:32:56.832Z,49.73
2022-10-14T10:33:57.011Z,49.93
2022-10-14T10:34:57.191Z,49.83
2022-10-14T10:35:57.364Z,49.73
2022-10-14T10:36:57.523Z,49.93
2022-10-14T10:37:57.732Z,50.13
2022-10-14T10:38:57.873Z,49.63
2022-10-14T10:39:58.043Z,49.93
2022-10-14T10:40:58.203Z,49.53
2022-10-14T10:41:58.374Z,49.83
2022-10-14T10:42:58.554Z,49.83
2022-10-14T10:43:58.712Z,50.82
2022-10-14T10:44:58.924Z,51.10
2022-10-14T10:45:59.063Z,50.82
2022-10-14T10:46:59.225Z,50.62
2022-10-14T10:47:59.384Z,51.12
2022-10-14T10:48:59.544Z,51.03
2022-10-14T10:49:59.766Z,50.65
2022-10-14T10:50:59.892Z,51.05
2022-10-14T10:52:00.045Z,51.15
2022-10-14T10:53:00.243Z,51.25
2022-10-14T10:54:00.394Z,51.45
2022-10-14T10:55:00.615Z,51.57
2022-10-14T10:56:00.746Z,51.95
2022-10-14T10:57:00.922Z,51.95
2022-10-14T10:58:03.644Z,52.17
2022-10-14T10:59:02.255Z,52.27
2022-10-14T11:00:01.434Z,52.07
2022-10-14T11:01:01.692Z,51.67
2022-10-14T11:02:01.817Z,50.97
2022-10-14T11:03:01.975Z,51.27
2022-10-14T11:04:02.134Z,51.77
2022-10-14T11:05:02.316Z,51.67
2022-10-14T11:06:02.466Z,52.17
2022-10-14T11:07:02.618Z,52.19
2022-10-14T11:08:02.787Z,51.89
2022-10-14T11:09:02.945Z,52.32
2022-10-14T11:10:03.133Z,52.52
2022-10-14T11:11:03.298Z,52.12
2022-10-14T11:12:03.485Z,52.72
2022-10-14T11:13:03.625Z,53.12
2022-10-14T11:14:03.787Z,52.92
2022-10-14T11:15:03.976Z,53.22
2022-10-14T11:16:04.126Z,52.89
2022-10-14T11:17:04.287Z,52.19
2022-10-14T11:18:04.436Z,52.69
2022-10-14T11:19:04.628Z,52.69
2022-10-14T11:20:04.808Z,52.89
2022-10-14T11:21:04.986Z,52.67
2022-10-14T11:22:05.176Z,52.07
2022-10-14T11:23:05.317Z,52.17
2022-10-14T11:24:05.553Z,52.27
2022-10-14T11:25:05.708Z,52.17
2022-10-14T11:26:05.828Z,52.17
2022-10-14T11:27:05.998Z,51.67
2022-10-14T11:28:06.148Z,51.87
2022-10-14T11:29:06.308Z,51.57
2022-10-14T11:30:06.669Z,51.57
2022-10-14T11:31:06.659Z,51.70
2022-10-14T11:32:06.819Z,51.70
2022-10-14T11:33:06.979Z,51.40
2022-10-14T11:34:07.142Z,51.50
2022-10-14T11:35:07.339Z,51.77
2022-10-14T11:36:07.469Z,51.57
2022-10-14T11:37:07.731Z,51.77
2022-10-14T11:38:07.840Z,51.27
2022-10-14T11:39:08.026Z,51.50
2022-10-14T11:40:08.172Z,51.67
2022-10-14T11:41:08.348Z,51.97
2022-10-14T11:42:08.489Z,51.37
2022-10-14T11:43:08.649Z,51.37
2022-10-14T11:44:08.854Z,51.75
2022-10-14T11:45:08.989Z,51.54
2022-10-14T11:46:09.176Z,51.95
2022-10-14T11:47:09.344Z,52.14
2022-10-14T11:48:09.599Z,51.32
2022-10-14T11:49:09.691Z,51.12
2022-10-14T11:50:09.851Z,51.22
2022-10-14T11:51:10.010Z,50.92
2022-10-14T11:52:10.192Z,50.70
2022-10-14T11:53:10.360Z,50.00
2022-10-14T11:54:10.581Z,51.00
2022-10-14T11:55:13.795Z,51.40
2022-10-14T11:56:10.876Z,51.70
2022-10-14T11:57:11.017Z,50.38
2022-10-14T11:58:11.171Z,50.78
2022-10-14T11:59:11.351Z,50.48
2022-10-14T12:00:11.628Z,49.88
2022-10-14T12:01:11.730Z,49.38
2022-10-14T12:02:11.965Z,49.88
2022-10-14T12:03:12.161Z,50.18
2022-10-14T12:04:12.273Z,49.68
2022-10-14T12:05:12.411Z,49.90
2022-10-14T12:06:12.598Z,49.90
2022-10-14T12:07:12.771Z,50.30
2022-10-14T12:08:12.963Z,50.10
2022-10-14T12:09:13.145Z,50.60
2022-10-14T12:10:13.382Z,50.50
2022-10-14T12:11:13.452Z,50.80
2022-10-14T12:12:13.632Z,51.10
2022-10-14T12:13:13.815Z,50.80
2022-10-14T12:14:14.003Z,50.90
2022-10-14T12:15:14.193Z,50.92
2022-10-14T12:16:14.376Z,50.82
2022-10-14T12:17:17.558Z,49.73
2022-10-14T12:18:14.775Z,49.83
2022-10-14T12:19:14.934Z,50.35
2022-10-14T12:20:15.074Z,50.25
2022-10-14T12:21:15.285Z,50.45
2022-10-14T12:22:15.433Z,50.65
2022-10-14T12:23:15.593Z,51.03
2022-10-14T12:24:15.764Z,50.62
2022-10-14T12:25:15.937Z,49.70
2022-10-14T12:26:16.086Z,49.58
2022-10-14T12:27:16.265Z,50.08
2022-10-14T12:28:16.493Z,49.58
2022-10-14T12:29:16.698Z,49.18
2022-10-14T12:30:16.846Z,49.38
2022-10-14T12:31:16.976Z,49.46
2022-10-14T12:32:17.174Z,49.16
2022-10-14T12:33:22.310Z,48.16
2022-10-14T12:34:18.543Z,48.76
2022-10-14T12:35:17.704Z,48.66
2022-10-14T12:36:17.907Z,48.96
2022-10-14T12:37:18.048Z,49.06
2022-10-14T12:38:18.231Z,49.16
2022-10-14T12:39:18.429Z,48.76
2022-10-14T12:40:18.604Z,48.46
2022-10-14T12:41:18.790Z,47.66
2022-10-14T12:42:18.986Z,48.26
2022-10-14T12:43:19.145Z,47.56
2022-10-14T12:44:19.316Z,47.99
2022-10-14T12:45:19.478Z,48.19
2022-10-14T12:46:19.629Z,48.98
2022-10-14T12:47:20.006Z,49.40
2022-10-14T12:48:19.977Z,49.21
2022-10-14T12:49:20.167Z,49.18
2022-10-14T12:50:20.317Z,49.18
2022-10-14T12:51:20.525Z,49.38
2022-10-14T12:52:20.684Z,49.38
2022-10-14T12:53:20.840Z,48.19
2022-10-14T12:54:21.018Z,47.99
2022-10-14T12:55:21.158Z,47.69
2022-10-14T12:56:21.368Z,47.79